Time;durP1;ratioP1;P1;durP2;ratioP2;P2;SDS_P1;SDS_P2;PMS_P1;PMS_P2;Temp;Humidity;BMP_temperature;BMP_pressure;BME280_temperature;BME280_humidity;BME280_pressure;Samples;Min_cycle;Max_cycle;Signal;HPM_P1;HPM_P2
2023/04/16 00:00:39;;;;;;;1.20;1.20;;;16.10;50.30;;;;;;5108361;27;46734;-72
2023/04/16 00:03:06;;;;;;;1.42;1.25;;;16.00;50.20;;;;;;5108458;27;45335;-72
2023/04/16 00:05:33;;;;;;;2.15;1.20;;;16.00;50.30;;;;;;5108728;27;45369;-72
2023/04/16 00:08:00;;;;;;;1.50;1.40;;;16.00;50.50;;;;;;5108584;27;45458;-73
2023/04/16 00:10:28;;;;;;;1.33;1.23;;;16.00;50.40;;;;;;5108009;27;45293;-73
2023/04/16 00:12:55;;;;;;;1.30;1.20;;;16.00;50.50;;;;;;5107919;27;45316;-72
2023/04/16 00:15:22;;;;;;;1.50;1.20;;;16.00;50.50;;;;;;5108086;27;45314;-72
2023/04/16 00:17:48;;;;;;;1.30;1.20;;;16.00;51.00;;;;;;5108156;27;45297;-72
2023/04/16 00:20:15;;;;;;;1.17;1.08;;;16.00;50.50;;;;;;5107824;27;47614;-72
2023/04/16 00:22:42;;;;;;;1.08;1.08;;;15.90;50.40;;;;;;5105529;27;45414;-72
2023/04/16 00:25:09;;;;;;;1.42;1.30;;;15.90;50.50;;;;;;5108327;27;45267;-72
2023/04/16 00:27:37;;;;;;;1.45;1.35;;;15.90;50.50;;;;;;5108400;27;45168;-72
2023/04/16 00:30:05;;;;;;;1.75;1.40;;;15.90;50.50;;;;;;5107736;27;45311;-71
2023/04/16 00:32:32;;;;;;;1.55;1.40;;;15.90;50.60;;;;;;5107920;27;45322;-72
2023/04/16 00:34:59;;;;;;;2.95;1.50;;;15.90;50.80;;;;;;5107948;27;45333;-72
2023/04/16 00:37:26;;;;;;;1.30;1.20;;;15.90;50.70;;;;;;5108204;27;45459;-72
2023/04/16 00:39:52;;;;;;;1.17;1.10;;;15.90;50.70;;;;;;5107792;27;45479;-72
2023/04/16 00:42:19;;;;;;;1.60;1.50;;;15.90;50.70;;;;;;5107693;27;45411;-72
2023/04/16 00:44:47;;;;;;;1.25;1.20;;;15.90;50.60;;;;;;5107641;27;45348;-73
2023/04/16 00:47:14;;;;;;;1.20;1.10;;;15.80;50.80;;;;;;5108026;27;45387;-71
2023/04/16 00:49:41;;;;;;;1.75;1.50;;;15.80;50.70;;;;;;5106881;27;45615;-72
2023/04/16 00:52:08;;;;;;;1.92;1.60;;;15.80;50.80;;;;;;5107438;27;45405;-72
2023/04/16 00:54:35;;;;;;;1.40;1.20;;;15.80;50.80;;;;;;5107812;27;45336;-72
2023/04/16 00:57:02;;;;;;;1.30;1.20;;;15.80;50.70;;;;;;5107935;27;45245;-72
2023/04/16 00:59:29;;;;;;;1.52;1.42;;;15.80;50.80;;;;;;5107525;27;47653;-72
2023/04/16 01:01:57;;;;;;;1.30;1.20;;;15.80;50.80;;;;;;5107686;27;45248;-72
2023/04/16 01:04:25;;;;;;;1.85;1.30;;;15.80;50.90;;;;;;5107680;27;45411;-72
2023/04/16 01:06:51;;;;;;;1.38;1.20;;;15.80;51.60;;;;;;5107781;27;45226;-72
2023/04/16 01:09:18;;;;;;;1.40;1.23;;;15.80;51.00;;;;;;5107516;27;46529;-72
2023/04/16 01:11:45;;;;;;;1.05;1.05;;;15.70;50.80;;;;;;5107360;27;45322;-72
2023/04/16 01:14:12;;;;;;;1.35;1.25;;;15.70;50.90;;;;;;5107557;27;45251;-72
2023/04/16 01:16:38;;;;;;;1.67;1.58;;;15.70;51.00;;;;;;5107833;27;45248;-72
2023/04/16 01:19:07;;;;;;;1.83;1.65;;;15.70;51.10;;;;;;5107387;27;46271;-72
2023/04/16 01:21:35;;;;;;;1.60;1.30;;;15.70;51.00;;;;;;5107432;27;45228;-72
2023/04/16 01:24:03;;;;;;;2.33;1.55;;;15.70;51.10;;;;;;5104859;27;45398;-72
2023/04/16 01:26:30;;;;;;;1.60;1.50;;;15.70;51.00;;;;;;5107521;27;45253;-72
2023/04/16 01:28:57;;;;;;;1.30;1.20;;;15.70;51.10;;;;;;5107034;27;46684;-72
2023/04/16 01:31:23;;;;;;;1.20;1.10;;;15.70;51.10;;;;;;5107363;27;45358;-72
2023/04/16 01:33:50;;;;;;;1.25;1.08;;;15.60;51.10;;;;;;5107287;27;45329;-73
2023/04/16 01:36:17;;;;;;;1.60;1.50;;;15.60;51.10;;;;;;5107275;27;45317;-72
2023/04/16 01:38:45;;;;;;;1.25;1.15;;;15.60;51.10;;;;;;5106977;27;46392;-72
2023/04/16 01:41:12;;;;;;;1.30;1.25;;;15.60;51.10;;;;;;5106974;27;45349;-72
2023/04/16 01:43:41;;;;;;;1.33;1.23;;;15.60;51.20;;;;;;5107141;27;45249;-72
2023/04/16 01:46:15;;;;;;;1.70;1.45;;;15.60;51.70;;;;;;5107105;27;45521;-72
2023/04/16 01:48:42;;;;;;;1.77;1.50;;;15.60;51.20;;;;;;5106895;27;46487;-72
2023/04/16 01:51:09;;;;;;;1.30;1.20;;;15.60;51.20;;;;;;5106881;27;45324;-73
2023/04/16 01:53:36;;;;;;;1.20;1.08;;;15.60;51.20;;;;;;5107002;27;45316;-72
2023/04/16 01:56:05;;;;;;;1.48;1.30;;;15.60;51.20;;;;;;5107071;27;45301;-73
2023/04/16 01:58:32;;;;;;;0.98;0.95;;;15.60;51.20;;;;;;5106662;27;46407;-73
2023/04/16 02:00:59;;;;;;;1.35;1.30;;;15.60;51.20;;;;;;5106431;27;45401;-72
2023/04/16 02:03:26;;;;;;;1.48;1.38;;;15.60;51.20;;;;;;5105812;27;45390;-73
2023/04/16 02:05:53;;;;;;;1.45;1.30;;;15.60;51.10;;;;;;5106706;27;45301;-72
2023/04/16 02:08:20;;;;;;;1.83;1.20;;;15.60;51.50;;;;;;5106349;27;47293;-72
2023/04/16 02:10:47;;;;;;;1.30;1.20;;;15.60;51.20;;;;;;5106416;27;45252;-72
2023/04/16 02:13:15;;;;;;;1.40;1.30;;;15.60;51.10;;;;;;5106479;27;45516;-72
2023/04/16 02:15:45;;;;;;;1.40;1.30;;;15.60;51.20;;;;;;5106548;27;45315;-72
2023/04/16 02:18:12;;;;;;;1.15;1.15;;;15.60;51.20;;;;;;5106133;27;45324;-72
2023/04/16 02:20:40;;;;;;;1.20;1.10;;;15.60;51.90;;;;;;5106198;27;45341;-72
2023/04/16 02:23:07;;;;;;;1.20;1.10;;;15.60;51.30;;;;;;5106409;27;45546;-72
2023/04/16 02:25:39;;;;;;;1.30;1.20;;;15.60;51.30;;;;;;5106576;27;45180;-72
2023/04/16 02:28:06;;;;;;;1.67;1.02;;;15.50;51.30;;;;;;5106004;27;46638;-71
2023/04/16 02:30:35;;;;;;;1.25;1.10;;;15.60;51.50;;;;;;5106120;27;45395;-72
2023/04/16 02:33:04;;;;;;;1.40;1.30;;;15.50;51.30;;;;;;5106254;27;45299;-72
2023/04/16 02:35:31;;;;;;;1.67;1.30;;;15.50;51.30;;;;;;5106206;27;45476;-71
2023/04/16 02:37:58;;;;;;;1.13;1.13;;;15.50;51.40;;;;;;5105978;27;46390;-72
2023/04/16 02:40:24;;;;;;;1.10;1.10;;;15.50;51.30;;;;;;5106214;27;45353;-72
2023/04/16 02:42:51;;;;;;;1.10;1.00;;;15.50;51.40;;;;;;5106123;27;45339;-72
2023/04/16 02:45:18;;;;;;;1.00;1.00;;;15.50;51.40;;;;;;5105948;27;45302;-72
2023/04/16 02:47:46;;;;;;;1.40;1.30;;;15.50;51.50;;;;;;5105842;27;45357;-71
2023/04/16 02:50:13;;;;;;;1.02;0.90;;;15.50;51.40;;;;;;5105694;27;45343;-72
2023/04/16 02:52:40;;;;;;;1.48;1.20;;;15.50;51.50;;;;;;5106028;27;45515;-72
2023/04/16 02:55:08;;;;;;;1.33;1.17;;;15.50;51.40;;;;;;5106079;27;45479;-71
2023/04/16 02:57:35;;;;;;;1.30;1.08;;;15.50;51.50;;;;;;5105861;27;45837;-72
2023/04/16 03:00:03;;;;;;;1.40;1.30;;;15.50;51.40;;;;;;5105763;27;45320;-72
2023/04/16 03:02:30;;;;;;;1.35;1.10;;;15.50;51.50;;;;;;5105906;27;45272;-72
2023/04/16 03:04:58;;;;;;;1.73;1.13;;;15.50;51.40;;;;;;5106077;27;45390;-72
2023/04/16 03:07:25;;;;;;;1.00;1.00;;;15.50;51.50;;;;;;5105668;27;45488;-72
2023/04/16 03:09:52;;;;;;;1.15;1.05;;;15.50;51.40;;;;;;5105549;27;45339;-72
2023/04/16 03:12:19;;;;;;;1.10;1.00;;;15.40;51.60;;;;;;5105830;27;45365;-71
2023/04/16 03:14:45;;;;;;;1.30;1.20;;;15.50;51.60;;;;;;5108735;27;45411;-72
2023/04/16 03:17:12;;;;;;;1.10;1.10;;;15.50;51.60;;;;;;5108978;27;46772;-71
2023/04/16 03:19:39;;;;;;;1.58;1.48;;;15.40;51.50;;;;;;5108993;27;45267;-72
2023/04/16 03:22:07;;;;;;;1.02;1.00;;;15.50;51.60;;;;;;5109316;27;45339;-72
2023/04/16 03:24:34;;;;;;;1.50;1.40;;;15.40;52.20;;;;;;5109293;27;45323;-72
2023/04/16 03:27:01;;;;;;;1.10;1.05;;;15.40;51.70;;;;;;5108879;27;45331;-72
2023/04/16 03:29:28;;;;;;;1.10;1.10;;;15.40;51.60;;;;;;5109081;27;45446;-72
2023/04/16 03:31:55;;;;;;;1.40;1.00;;;15.40;51.50;;;;;;5109481;27;45335;-72
2023/04/16 03:34:22;;;;;;;1.33;1.23;;;15.40;51.60;;;;;;5109542;27;45306;-72
2023/04/16 03:36:49;;;;;;;1.15;1.15;;;15.40;51.60;;;;;;5108745;27;45447;-72
2023/04/16 03:39:17;;;;;;;1.20;1.10;;;15.40;51.70;;;;;;5108891;27;45222;-72
2023/04/16 03:41:43;;;;;;;1.13;1.13;;;15.40;51.70;;;;;;5108800;27;45236;-71
2023/04/16 03:44:10;;;;;;;0.90;0.90;;;15.40;51.70;;;;;;5109194;27;45580;-72
2023/04/16 03:46:37;;;;;;;3.92;1.30;;;15.40;51.70;;;;;;5108348;27;45484;-71
2023/04/16 03:49:04;;;;;;;1.13;1.13;;;15.30;51.60;;;;;;5108534;27;45262;-72
2023/04/16 03:51:31;;;;;;;1.30;1.20;;;15.30;51.70;;;;;;5108736;27;45301;-72
2023/04/16 03:53:58;;;;;;;1.30;1.10;;;15.40;51.70;;;;;;5108889;27;45344;-72
2023/04/16 03:56:26;;;;;;;1.30;1.13;;;15.40;51.80;;;;;;5108439;27;45279;-72
2023/04/16 03:58:53;;;;;;;1.13;1.02;;;15.40;51.70;;;;;;5108437;27;45382;-72
2023/04/16 04:01:19;;;;;;;1.08;1.08;;;15.30;51.70;;;;;;5108532;27;45316;-72
2023/04/16 04:03:46;;;;;;;1.27;1.17;;;15.30;51.70;;;;;;5108780;27;45402;-72
2023/04/16 04:06:13;;;;;;;0.80;0.80;;;15.30;51.80;;;;;;5108349;27;45251;-72
2023/04/16 04:08:40;;;;;;;1.02;1.02;;;15.30;51.70;;;;;;5108362;27;45326;-72
2023/04/16 04:11:06;;;;;;;1.17;1.10;;;15.30;51.80;;;;;;5108471;27;45347;-72
2023/04/16 04:13:35;;;;;;;1.05;1.02;;;15.30;51.80;;;;;;5105972;27;45432;-72
2023/04/16 04:16:01;;;;;;;0.95;0.95;;;15.30;51.80;;;;;;5108004;27;46426;-72
2023/04/16 04:18:28;;;;;;;1.20;1.08;;;15.30;51.80;;;;;;5108188;27;45473;-72
2023/04/16 04:20:56;;;;;;;1.02;1.00;;;15.30;51.80;;;;;;5108185;27;45265;-72
2023/04/16 04:23:22;;;;;;;0.93;0.93;;;15.30;51.80;;;;;;5108321;27;45463;-72
2023/04/16 04:25:49;;;;;;;0.93;0.88;;;15.30;51.70;;;;;;5107041;27;46377;-72
2023/04/16 04:28:16;;;;;;;1.05;1.00;;;15.30;51.80;;;;;;5107998;27;45310;-72
2023/04/16 04:30:44;;;;;;;1.05;1.05;;;15.30;51.80;;;;;;5108079;27;45306;-72
2023/04/16 04:33:11;;;;;;;1.10;1.10;;;15.20;51.80;;;;;;5108319;27;45318;-72
2023/04/16 04:35:38;;;;;;;0.90;0.90;;;15.30;51.90;;;;;;5107737;27;46286;-72
2023/04/16 04:38:05;;;;;;;1.10;1.10;;;15.30;51.90;;;;;;5107794;27;45373;-73
2023/04/16 04:40:32;;;;;;;1.10;1.00;;;15.20;51.80;;;;;;5108008;27;45341;-72
2023/04/16 04:42:58;;;;;;;1.10;1.00;;;15.20;51.90;;;;;;5108106;27;45247;-71
2023/04/16 04:45:25;;;;;;;1.85;1.10;;;15.20;51.90;;;;;;5107432;27;46807;-72
2023/04/16 04:47:53;;;;;;;1.00;1.00;;;15.20;51.90;;;;;;5107845;27;45357;-72
2023/04/16 04:50:21;;;;;;;0.98;0.95;;;15.20;51.90;;;;;;5107678;27;45388;-72
2023/04/16 04:52:47;;;;;;;1.88;1.30;;;15.20;51.90;;;;;;5108144;27;45251;-72
2023/04/16 04:55:14;;;;;;;0.95;0.95;;;15.20;52.00;;;;;;5107590;27;46428;-72
2023/04/16 04:57:41;;;;;;;0.80;0.80;;;15.20;52.00;;;;;;5107572;27;45427;-72
2023/04/16 05:00:09;;;;;;;1.20;1.10;;;15.20;51.90;;;;;;5107815;27;45317;-72
2023/04/16 05:02:36;;;;;;;1.20;0.90;;;15.20;51.90;;;;;;5107818;27;45421;-72
2023/04/16 05:05:04;;;;;;;0.90;0.90;;;15.20;51.90;;;;;;5107478;27;45429;-72
2023/04/16 05:07:31;;;;;;;1.27;0.93;;;15.20;51.80;;;;;;5107365;27;45319;-71
2023/04/16 05:09:58;;;;;;;1.00;1.00;;;15.20;51.90;;;;;;5107580;27;45355;-72
2023/04/16 05:12:25;;;;;;;0.95;0.95;;;15.20;52.00;;;;;;5107502;27;45565;-72
2023/04/16 05:14:51;;;;;;;1.10;1.10;;;15.20;52.00;;;;;;5107106;27;45483;-73
2023/04/16 05:17:18;;;;;;;1.10;1.10;;;15.10;51.90;;;;;;5107345;27;45454;-72
2023/04/16 05:19:45;;;;;;;1.95;1.00;;;15.20;52.00;;;;;;5107246;27;45359;-72
2023/04/16 05:22:13;;;;;;;0.90;0.90;;;15.20;52.10;;;;;;5107506;27;45357;-72
2023/04/16 05:24:40;;;;;;;1.23;1.13;;;15.10;52.00;;;;;;5107223;27;45351;-73
2023/04/16 05:27:07;;;;;;;1.10;1.10;;;15.10;51.90;;;;;;5107516;27;45319;-73
2023/04/16 05:29:33;;;;;;;1.20;1.10;;;15.10;52.00;;;;;;5107524;27;45274;-72
2023/04/16 05:32:00;;;;;;;0.90;0.90;;;15.10;51.90;;;;;;5108040;27;45248;-73
2023/04/16 05:34:27;;;;;;;0.82;0.82;;;15.10;52.00;;;;;;5106996;27;45546;-73
2023/04/16 05:36:54;;;;;;;1.00;1.00;;;15.10;52.00;;;;;;5106948;27;45378;-72
2023/04/16 05:39:22;;;;;;;1.27;1.10;;;15.10;52.00;;;;;;5107519;27;45336;-73
2023/04/16 05:41:49;;;;;;;1.05;0.95;;;15.10;52.00;;;;;;5107478;27;45228;-73
2023/04/16 05:44:16;;;;;;;1.08;0.98;;;15.10;52.00;;;;;;5106940;27;45253;-72
2023/04/16 05:46:42;;;;;;;1.73;1.10;;;15.10;52.60;;;;;;5106734;27;45328;-72
2023/04/16 05:49:10;;;;;;;0.95;0.95;;;15.10;52.00;;;;;;5106944;27;45324;-73
2023/04/16 05:51:37;;;;;;;0.98;0.98;;;15.10;52.00;;;;;;5106891;27;45437;-73
2023/04/16 05:54:04;;;;;;;1.10;1.00;;;15.10;52.00;;;;;;5106821;27;47308;-73
2023/04/16 05:56:32;;;;;;;0.95;0.95;;;15.10;52.00;;;;;;5106548;27;45333;-72
2023/04/16 05:58:59;;;;;;;0.90;0.88;;;15.10;52.00;;;;;;5106873;27;45458;-73
2023/04/16 06:01:25;;;;;;;1.30;1.20;;;15.10;52.00;;;;;;5106643;27;45389;-73
2023/04/16 06:03:52;;;;;;;0.93;0.93;;;15.10;52.00;;;;;;5106628;27;45324;-72
2023/04/16 06:06:19;;;;;;;0.80;0.80;;;15.10;52.10;;;;;;5106508;27;45263;-71
2023/04/16 06:08:46;;;;;;;1.63;1.10;;;15.10;52.00;;;;;;5106626;27;45308;-72
2023/04/16 06:11:13;;;;;;;1.40;1.10;;;15.10;52.10;;;;;;5106801;27;45368;-72
2023/04/16 06:13:41;;;;;;;1.00;1.00;;;15.10;52.10;;;;;;5106335;27;46374;-72
2023/04/16 06:16:08;;;;;;;1.00;1.00;;;15.10;52.10;;;;;;5106435;27;45409;-72
2023/04/16 06:18:35;;;;;;;1.10;1.10;;;15.10;52.70;;;;;;5106391;27;45269;-72
2023/04/16 06:21:02;;;;;;;1.67;1.08;;;15.10;52.10;;;;;;5105870;27;46446;-72
2023/04/16 06:23:29;;;;;;;0.80;0.80;;;15.10;52.10;;;;;;5105531;27;47341;-72
2023/04/16 06:25:55;;;;;;;2.42;1.08;;;15.10;52.30;;;;;;5106018;27;45358;-72
2023/04/16 06:28:22;;;;;;;2.25;1.20;;;15.10;52.30;;;;;;5106332;27;45323;-72
2023/04/16 06:30:50;;;;;;;5.00;1.27;;;15.10;52.20;;;;;;5106184;27;45299;-72
2023/04/16 06:33:17;;;;;;;1.17;1.00;;;15.10;53.00;;;;;;5105890;27;45370;-72
2023/04/16 06:35:44;;;;;;;1.67;0.95;;;15.10;52.50;;;;;;5105687;27;45244;-71
2023/04/16 06:38:11;;;;;;;1.30;0.90;;;15.00;52.50;;;;;;5106240;27;45309;-72
2023/04/16 06:40:37;;;;;;;2.63;0.95;;;15.10;52.50;;;;;;5106162;27;45490;-72
2023/04/16 06:43:04;;;;;;;1.30;1.17;;;15.10;52.50;;;;;;5105301;27;45491;-72
2023/04/16 06:45:31;;;;;;;0.90;0.90;;;15.00;52.40;;;;;;5105469;27;45270;-72
2023/04/16 06:48:00;;;;;;;2.58;0.90;;;15.00;52.50;;;;;;5106409;27;45374;-73
2023/04/16 06:50:27;;;;;;;1.27;1.17;;;15.00;53.10;;;;;;5109796;27;45288;-72
2023/04/16 06:52:54;;;;;;;2.10;1.33;;;15.00;52.50;;;;;;5109218;27;46475;-71
2023/04/16 06:55:20;;;;;;;1.35;1.17;;;15.00;52.40;;;;;;5089110;27;45313;-71
2023/04/16 06:57:47;;;;;;;1.13;1.00;;;15.00;52.40;;;;;;5089071;27;45260;-72
2023/04/16 07:00:14;;;;;;;3.90;1.33;;;15.00;52.40;;;;;;5089086;27;45360;-72
2023/04/16 07:02:41;;;;;;;1.35;1.00;;;15.00;52.40;;;;;;5088771;27;46791;-72
2023/04/16 07:05:09;;;;;;;1.33;1.23;;;15.00;52.50;;;;;;5088871;27;45248;-72
2023/04/16 07:07:36;;;;;;;1.15;1.00;;;15.00;52.50;;;;;;5091067;27;45311;-72
2023/04/16 07:10:04;;;;;;;1.17;1.10;;;15.00;52.50;;;;;;5109300;27;45312;-72
2023/04/16 07:12:31;;;;;;;1.40;0.88;;;15.00;52.40;;;;;;5105531;27;46384;-71
2023/04/16 07:14:58;;;;;;;10.27;1.40;;;15.00;52.40;;;;;;5105732;27;45390;-72
2023/04/16 07:17:25;;;;;;;2.97;1.30;;;15.00;54.10;;;;;;5098702;27;45398;-71
2023/04/16 07:19:52;;;;;;;1.75;1.60;;;15.10;53.40;;;;;;5105457;27;45250;-72
2023/04/16 07:22:21;;;;;;;1.23;1.13;;;15.00;53.50;;;;;;5107753;27;46558;-72
2023/04/16 07:24:47;;;;;;;2.25;1.27;;;15.00;54.30;;;;;;5108677;27;45454;-73
2023/04/16 07:27:15;;;;;;;3.70;1.10;;;15.10;53.50;;;;;;5109198;27;45391;-71
2023/04/16 07:29:44;;;;;;;1.80;1.27;;;15.20;53.40;;;;;;5112046;27;45640;-69
2023/04/16 07:32:11;;;;;;;1.20;1.10;;;15.20;53.30;;;;;;5107858;27;46674;-73
2023/04/16 07:34:38;;;;;;;2.88;1.50;;;15.30;53.20;;;;;;5106974;27;45395;-69
2023/04/16 07:37:05;;;;;;;3.65;1.27;;;15.30;53.50;;;;;;5108793;27;45122;-74
2023/04/16 07:39:33;;;;;;;7.47;2.35;;;15.30;53.30;;;;;;5109538;27;45260;-73
2023/04/16 07:42:00;;;;;;;3.20;1.65;;;15.40;53.80;;;;;;5110914;27;46817;-73
2023/04/16 07:44:26;;;;;;;1.60;1.50;;;15.40;52.90;;;;;;5108615;27;45383;-69
2023/04/16 07:46:53;;;;;;;1.50;1.40;;;15.50;52.90;;;;;;5110853;27;45296;-71
2023/04/16 07:49:20;;;;;;;4.30;2.03;;;15.50;52.60;;;;;;5108304;27;45175;-68
2023/04/16 07:51:47;;;;;;;12.90;2.58;;;15.60;53.00;;;;;;5110999;27;46666;-74
2023/04/16 07:54:14;;;;;;;6.47;2.65;;;15.60;53.20;;;;;;5107891;27;45539;-71
2023/04/16 07:56:42;;;;;;;10.90;2.60;;;15.70;53.60;;;;;;5105582;27;45370;-71
2023/04/16 07:59:08;;;;;;;11.18;4.90;;;15.70;53.40;;;;;;5112581;27;45414;-74
2023/04/16 08:01:35;;;;;;;5.13;3.88;;;15.80;53.30;;;;;;5111132;27;46400;-70
2023/04/16 08:04:02;;;;;;;13.38;6.03;;;15.80;53.20;;;;;;5109707;27;45319;-70
2023/04/16 08:06:29;;;;;;;9.00;6.15;;;15.90;53.20;;;;;;5108527;27;45410;-72
2023/04/16 08:08:56;;;;;;;21.55;11.35;;;15.90;53.30;;;;;;5109465;27;45469;-70
2023/04/16 08:11:23;;;;;;;13.07;10.18;;;16.00;53.50;;;;;;5102825;27;45529;-70
2023/04/16 08:13:51;;;;;;;13.45;10.63;;;16.00;53.80;;;;;;5108094;27;45335;-73
2023/04/16 08:16:18;;;;;;;16.80;11.52;;;16.10;54.10;;;;;;5109391;27;45489;-71
2023/04/16 08:18:45;;;;;;;23.45;16.70;;;16.20;53.90;;;;;;5108042;27;45379;-71
2023/04/16 08:21:12;;;;;;;22.13;15.00;;;16.30;53.50;;;;;;5111321;27;45770;-71
2023/04/16 08:23:38;;;;;;;16.85;13.82;;;16.40;53.50;;;;;;5104074;27;45550;-70
2023/04/16 08:26:05;;;;;;;26.80;14.10;;;16.40;53.60;;;;;;5110777;27;45329;-70
2023/04/16 08:28:32;;;;;;;24.20;14.13;;;16.50;53.80;;;;;;5106545;27;45541;-70
2023/04/16 08:31:01;;;;;;;28.42;17.90;;;16.60;53.80;;;;;;5110284;27;45490;-76
2023/04/16 08:33:27;;;;;;;72.13;44.35;;;16.70;53.60;;;;;;5095606;27;45506;-69
2023/04/16 08:35:54;;;;;;;67.72;41.42;;;16.80;53.40;;;;;;5112325;27;45145;-72
2023/04/16 08:38:21;;;;;;;65.43;35.72;;;16.80;53.50;;;;;;5109717;27;45499;-72
2023/04/16 08:40:48;;;;;;;57.17;37.63;;;17.00;53.50;;;;;;5109912;27;46530;-73
2023/04/16 08:43:15;;;;;;;52.45;33.42;;;17.00;53.50;;;;;;5111032;27;45391;-72
2023/04/16 08:45:42;;;;;;;78.32;50.25;;;17.10;53.10;;;;;;5103960;27;45471;-71
2023/04/16 08:48:11;;;;;;;66.32;47.78;;;17.10;52.90;;;;;;5109513;27;45476;-72
2023/04/16 08:50:38;;;;;;;66.40;48.03;;;17.20;53.10;;;;;;5112097;27;47342;-72
2023/04/16 08:53:06;;;;;;;268.65;240.90;;;17.20;52.70;;;;;;5110420;27;45349;-71
2023/04/16 08:55:35;;;;;;;151.20;134.65;;;17.30;52.90;;;;;;5111457;27;45502;-73
2023/04/16 08:58:03;;;;;;;78.00;69.45;;;17.10;53.80;;;;;;5111749;27;45311;-75
2023/04/16 09:00:30;;;;;;;152.18;135.65;;;16.80;54.80;;;;;;5108782;27;45462;-71
2023/04/16 09:02:57;;;;;;;44.03;36.13;;;16.70;54.80;;;;;;5104186;27;45400;-73
2023/04/16 09:05:25;;;;;;;40.42;22.73;;;16.80;52.90;;;;;;5106486;27;45367;-72
2023/04/16 09:07:52;;;;;;;40.40;23.05;;;16.80;52.90;;;;;;5096523;27;45763;-71
2023/04/16 09:10:19;;;;;;;28.48;24.30;;;16.80;53.10;;;;;;5114251;27;45446;-76
2023/04/16 09:12:46;;;;;;;29.70;23.45;;;16.80;53.20;;;;;;5111975;27;45373;-71
2023/04/16 09:15:13;;;;;;;30.58;20.92;;;16.90;53.00;;;;;;5111105;27;45391;-70
2023/04/16 09:17:40;;;;;;;39.33;21.45;;;16.90;53.90;;;;;;5109253;27;45269;-72
2023/04/16 09:20:09;;;;;;;32.45;21.23;;;17.00;53.40;;;;;;5106338;27;45513;-72
2023/04/16 09:22:38;;;;;;;33.58;21.42;;;17.10;53.30;;;;;;5110369;27;45356;-73
2023/04/16 09:25:06;;;;;;;30.77;19.33;;;17.10;53.10;;;;;;5107050;27;45184;-70
2023/04/16 09:27:33;;;;;;;24.23;17.90;;;17.10;52.80;;;;;;5106194;27;45402;-70
2023/04/16 09:30:00;;;;;;;27.55;17.95;;;17.00;53.10;;;;;;5110287;27;47453;-74
2023/04/16 09:32:27;;;;;;;31.23;17.40;;;17.00;52.80;;;;;;5107318;27;45382;-72
2023/04/16 09:34:55;;;;;;;35.30;17.35;;;17.00;53.40;;;;;;5107090;27;45325;-76
2023/04/16 09:37:22;;;;;;;30.63;16.77;;;17.10;53.40;;;;;;5106227;27;45529;-73
2023/04/16 09:39:55;;;;;;;37.00;17.20;;;17.10;53.50;;;;;;5112381;27;46154;-74
2023/04/16 09:42:23;;;;;;;35.85;16.48;;;17.20;54.10;;;;;;5106776;27;45251;-73
2023/04/16 09:44:50;;;;;;;32.55;16.70;;;17.20;53.50;;;;;;5106293;27;45312;-72
2023/04/16 09:47:17;;;;;;;37.15;17.10;;;17.30;52.90;;;;;;5106830;27;45395;-76
2023/04/16 09:49:45;;;;;;;28.40;15.20;;;17.30;52.80;;;;;;5106806;27;45320;-77
2023/04/16 09:52:15;;;;;;;37.08;15.75;;;17.30;52.50;;;;;;5106946;27;45141;-75
2023/04/16 09:54:49;;;;;;;53.53;42.15;;;17.30;52.60;;;;;;5106811;27;45502;-79
2023/04/16 09:57:21;;;;;;;55.03;45.75;;;17.30;53.50;;;;;;5094594;27;45379;-77
2023/04/16 09:59:47;;;;;;;35.20;21.08;;;17.30;54.00;;;;;;5102349;27;45496;-73
2023/04/16 10:02:14;;;;;;;37.22;20.73;;;17.40;52.70;;;;;;5104289;27;45249;-73
2023/04/16 10:04:46;;;;;;;40.45;21.17;;;17.40;52.70;;;;;;5095907;27;45585;-73
2023/04/16 10:07:13;;;;;;;39.38;20.88;;;17.40;52.80;;;;;;5104638;27;45351;-74
2023/04/16 10:09:40;;;;;;;72.78;43.88;;;17.40;53.10;;;;;;5106175;27;46663;-70
2023/04/16 10:12:07;;;;;;;56.17;31.85;;;17.40;53.40;;;;;;5113268;27;45281;-70
2023/04/16 10:14:35;;;;;;;55.38;25.95;;;17.30;52.60;;;;;;5126949;27;45367;-71
2023/04/16 10:17:03;;;;;;;40.78;22.67;;;17.30;52.50;;;;;;5127016;27;45297;-71
2023/04/16 10:19:31;;;;;;;41.47;23.40;;;17.20;52.70;;;;;;5126978;27;45318;-71
2023/04/16 10:21:58;;;;;;;52.60;23.45;;;17.10;52.70;;;;;;5126853;27;45366;-71
2023/04/16 10:24:25;;;;;;;43.25;23.65;;;17.10;52.90;;;;;;5126132;27;45302;-71
2023/04/16 10:26:52;;;;;;;37.03;23.05;;;17.00;52.90;;;;;;5127125;27;45400;-71
2023/04/16 10:29:19;;;;;;;38.17;23.52;;;16.90;53.00;;;;;;5126547;27;46730;-71
2023/04/16 10:31:47;;;;;;;43.08;23.88;;;16.80;53.10;;;;;;5127675;27;45344;-72
2023/04/16 10:34:14;;;;;;;35.78;23.73;;;16.80;53.80;;;;;;5127033;27;45279;-71
2023/04/16 10:36:41;;;;;;;37.17;23.60;;;16.70;53.30;;;;;;5126866;27;45423;-71
2023/04/16 10:39:10;;;;;;;34.13;22.02;;;16.70;53.40;;;;;;5126447;27;47296;-71
2023/04/16 10:41:37;;;;;;;28.92;21.40;;;16.60;53.70;;;;;;5126516;27;45358;-72
2023/04/16 10:44:08;;;;;;;31.90;21.00;;;16.60;53.40;;;;;;5126539;27;45362;-71
2023/04/16 10:46:38;;;;;;;34.10;21.05;;;16.60;53.50;;;;;;5126482;27;45291;-71
2023/04/16 10:49:14;;;;;;;34.22;21.38;;;16.50;53.50;;;;;;5126446;27;46414;-72
2023/04/16 10:51:41;;;;;;;28.00;19.90;;;16.50;53.50;;;;;;5126579;27;45271;-72
2023/04/16 10:54:20;;;;;;;36.10;19.88;;;16.40;53.50;;;;;;5126436;27;45177;-71
2023/04/16 10:56:47;;;;;;;27.25;19.48;;;16.40;53.60;;;;;;5126571;27;45303;-71
2023/04/16 10:59:17;;;;;;;30.17;18.65;;;16.40;53.60;;;;;;5126279;27;45316;-71
2023/04/16 11:01:44;;;;;;;26.92;17.83;;;16.30;53.60;;;;;;5126363;27;45291;-72
2023/04/16 11:04:37;;;;;;;30.77;19.67;;;16.30;53.60;;;;;;5126412;27;45329;-71
2023/04/16 11:07:06;;;;;;;25.55;17.67;;;16.30;53.60;;;;;;5126567;27;45256;-71
2023/04/16 11:09:55;;;;;;;27.75;17.80;;;16.30;53.60;;;;;;5126254;27;46386;-71
2023/04/16 11:12:22;;;;;;;24.15;17.00;;;16.30;53.60;;;;;;5126339;27;45241;-72
2023/04/16 11:14:50;;;;;;;23.55;16.67;;;16.20;53.60;;;;;;5126334;27;45274;-71
2023/04/16 11:17:17;;;;;;;25.27;16.75;;;16.20;53.60;;;;;;5126388;27;45303;-72
2023/04/16 11:19:45;;;;;;;23.70;16.70;;;16.20;53.60;;;;;;5125953;27;46439;-72
2023/04/16 11:22:13;;;;;;;24.85;15.93;;;16.20;53.60;;;;;;5126209;27;45204;-71
2023/04/16 11:24:40;;;;;;;20.30;15.77;;;16.10;53.60;;;;;;5126351;27;45333;-71
2023/04/16 11:27:07;;;;;;;23.25;17.25;;;16.10;53.60;;;;;;5126635;27;45336;-72
2023/04/16 11:29:34;;;;;;;19.15;16.08;;;16.10;53.60;;;;;;5125917;27;46344;-72
2023/04/16 11:32:00;;;;;;;26.05;16.30;;;16.10;53.60;;;;;;5126068;27;45326;-71
2023/04/16 11:34:28;;;;;;;20.35;15.32;;;16.10;53.60;;;;;;5127258;27;45141;-71
2023/04/16 11:36:56;;;;;;;20.45;15.32;;;16.10;53.60;;;;;;5129865;27;45174;-72
2023/04/16 11:39:23;;;;;;;17.23;14.38;;;16.00;53.60;;;;;;5129385;27;46574;-72
2023/04/16 11:41:51;;;;;;;21.08;15.45;;;16.00;53.60;;;;;;5129432;27;45449;-71
2023/04/16 11:44:19;;;;;;;19.33;15.30;;;16.00;53.70;;;;;;5129420;27;45206;-72
2023/04/16 11:46:46;;;;;;;20.15;14.98;;;16.00;53.60;;;;;;5129687;27;45434;-71
2023/04/16 11:49:12;;;;;;;21.55;14.10;;;16.10;53.60;;;;;;5129375;27;46703;-72
2023/04/16 11:51:40;;;;;;;18.95;14.02;;;16.10;53.60;;;;;;5129371;27;45328;-72
2023/04/16 11:54:08;;;;;;;19.88;14.07;;;16.10;53.50;;;;;;5129520;27;45325;-72
2023/04/16 11:56:36;;;;;;;21.70;14.48;;;16.10;53.50;;;;;;5129544;27;45833;-72
2023/04/16 11:59:07;;;;;;;17.00;14.15;;;16.00;53.50;;;;;;5129024;27;45331;-72
2023/04/16 12:01:35;;;;;;;20.67;13.68;;;16.10;53.50;;;;;;5129317;27;45321;-72
2023/04/16 12:04:01;;;;;;;18.63;14.88;;;16.10;53.50;;;;;;5129469;27;45300;-72
2023/04/16 12:06:28;;;;;;;15.68;13.05;;;16.10;53.50;;;;;;5129430;27;45481;-72
2023/04/16 12:08:55;;;;;;;18.55;14.00;;;16.00;53.50;;;;;;5126344;27;45406;-72
2023/04/16 12:11:37;;;;;;;17.30;13.10;;;16.10;53.50;;;;;;5128940;27;45272;-72
2023/04/16 12:14:07;;;;;;;17.60;12.27;;;16.00;53.50;;;;;;5129342;27;45355;-72
2023/04/16 12:16:34;;;;;;;16.38;13.20;;;16.00;53.50;;;;;;5129427;27;45138;-73
2023/04/16 12:19:02;;;;;;;16.60;13.60;;;16.00;53.50;;;;;;5128694;27;45797;-72
2023/04/16 12:21:42;;;;;;;16.63;12.82;;;16.00;53.50;;;;;;5128882;27;45383;-72
2023/04/16 12:24:10;;;;;;;19.23;13.48;;;16.00;53.60;;;;;;5129275;27;45280;-72
2023/04/16 12:26:41;;;;;;;15.02;11.98;;;16.00;53.60;;;;;;5129014;27;45569;-72
2023/04/16 12:29:18;;;;;;;16.65;11.82;;;15.90;53.50;;;;;;5128776;27;45260;-72
2023/04/16 12:31:45;;;;;;;15.90;12.00;;;15.90;53.60;;;;;;5128737;27;45129;-72
2023/04/16 12:34:13;;;;;;;16.40;12.23;;;15.90;53.60;;;;;;5128894;27;45375;-73
2023/04/16 12:36:40;;;;;;;18.17;12.35;;;15.90;53.60;;;;;;5128915;27;45420;-71
2023/04/16 12:39:09;;;;;;;15.35;12.18;;;15.90;53.60;;;;;;5128475;27;46708;-72